Weather at Edson Airport

Public forecast

Using degrees Celsius for public forecast. Weather courtesy of forecast.io.

Current aviation weather report (METAR) for Edson Airport

Retrieved 2022/06/30 09:00 UTC (27 minutes ago):

CYET 300900Z AUTO 25005KT 9SM FEW066 OVC086 11/09 A3011 RMK SLP212 DENSITY ALT 3100FT

Closest aviation forecast (TAF) to Edson Airport

Forecast is more than 12 hours old.

Closest forecast is Whitecourt Airport, 41.6 nm (77.0 km) NE. Retrieved 2022/06/29 19:00 UTC (14 hours ago):

TAF CYZU 291840Z 2919/2923 02006KT P6SM -RA BKN015 OVC025 TEMPO 2919/2921 2SM -RA BR BKN006 OVC015 FM292100 11006KT P6SM SCT025 BKN140 TEMPO 2921/2923 P6SM -SHRA BKN020 BKN090 RMK NXT FCST BY 301400Z